Strona główna
METAR-TAF:

METAR-TAF

Lotnisko :

Winner, Dakota Południowa, Stany Zjednoczone

Szerokość geograficzna: 43-23-26N, Długość geograficzna: 099-50-33W, wysokość: 619 m

Aktualna obserwacja pogody

Raport powstał 15 minut temu, godzina 02:53 UTC
Wiatr 4 kt od wschodnio-południowy wschód
Temperatura 16°C
Wilgotność 82%
Ciśnienie 1018 hPa
Widzialność: 16.1 km
bezchmurnie

METAR: KICR 180253Z AUTO 12004KT 10SM CLR 16/13 A3006 RMK AO2 SLP171 T01610133 53006

czas: 22:08 (03:08 UTC)


TAF: brakujący

Obserwacja i prognoza pogody dla ponad 4000 lotnisk (raport METAR i TAF).

Dostępne stacje oznaczono żółtymi i czerwonymi punktami na mapie.

Najedź kursorem aby zobaczyć nazwę stacji.

Kliknij aby zobaczyć obserwacje i prognozy pogody.

Aby zmienić mapę: kliknij na zielony przycisk z czarnym krzyżykiem, aby powiększyć; na zielony przycisk z myślnikiem, aby pomniejszyć; na zielone strzałki, aby przejść do map sąsiednich.


METAR-TAF: